Time;durP1;ratioP1;P1;durP2;ratioP2;P2;SDS_P1;SDS_P2;PMS_P1;PMS_P2;Temp;Humidity;BMP_temperature;BMP_pressure;BME280_temperature;BME280_humidity;BME280_pressure;Samples;Min_cycle;Max_cycle;Signal;HPM_P1;HPM_P2
2022/01/28 00:00:33;;;;;;;;;;;17.30;99.90;;;;;;5056041;28;1190;-50
2022/01/28 00:03:04;;;;;;;;;;;17.20;99.90;;;;;;5055571;28;1270;-45
2022/01/28 00:05:33;;;;;;;;;;;17.20;99.90;;;;;;5056022;28;1910;-46
2022/01/28 00:07:59;;;;;;;;;;;17.10;99.90;;;;;;5056958;28;1368;-45
2022/01/28 00:10:26;;;;;;;;;;;17.10;99.90;;;;;;5034221;28;1219;-49
2022/01/28 00:15:25;;;;;;;;;;;17.00;99.90;;;;;;5057457;28;1289;-49
2022/01/28 00:39:24;;;;;;;;;;;16.70;99.90;;;;;;5057409;28;892;-49
2022/01/28 00:41:50;;;;;;;;;;;16.70;99.90;;;;;;5057293;28;747;-49
2022/01/28 00:44:16;;;;;;;;;;;16.70;99.90;;;;;;5057150;28;1949;-49
2022/01/28 00:46:42;;;;;;;;;;;16.70;99.90;;;;;;5057104;28;753;-49
2022/01/28 00:49:08;;;;;;;;;;;16.60;99.90;;;;;;5039415;28;861;-49
2022/01/28 00:51:36;;;;;;;;;;;16.60;99.90;;;;;;5038464;28;930;-49
2022/01/28 00:54:02;;;;;;;;;;;16.60;99.90;;;;;;5053998;28;1583;-49
2022/01/28 00:56:28;;;;;;;;;;;16.50;99.90;;;;;;5055608;28;1448;-49
2022/01/28 00:58:54;;;;;;;;;;;16.50;99.90;;;;;;5056650;28;1097;-49
2022/01/28 01:01:20;;;;;;;;;;;16.50;99.90;;;;;;5056745;28;807;-49
2022/01/28 01:03:46;;;;;;;;;;;16.50;99.90;;;;;;5057568;28;1378;-49
2022/01/28 01:06:12;;;;;;;;;;;16.40;99.90;;;;;;5058554;28;1981;-49
2022/01/28 01:08:40;;;;;;;;;;;16.40;99.90;;;;;;5055695;28;864;-49
2022/01/28 01:11:08;;;;;;;;;;;16.40;99.90;;;;;;5056689;28;873;-49
2022/01/28 01:13:37;;;;;;;;;;;16.40;99.90;;;;;;5022152;28;874;-49
2022/01/28 01:16:05;;;;;;;;;;;16.30;99.90;;;;;;5025364;28;1430;-49
2022/01/28 01:18:50;;;;;;;;;;;16.30;99.90;;;;;;5059619;28;948;-49
2022/01/28 01:21:23;;;;;;;;;;;16.30;99.90;;;;;;5055738;28;1315;-49
2022/01/28 01:23:53;;;;;;;;;;;16.30;99.90;;;;;;5055445;28;873;-49
2022/01/28 01:26:21;;;;;;;;;;;16.20;99.90;;;;;;5055680;28;1973;-45
2022/01/28 01:28:48;;;;;;;;;;;16.20;99.90;;;;;;5054861;28;1427;-45
2022/01/28 01:31:18;;;;;;;;;;;16.20;99.90;;;;;;5055463;28;894;-45
2022/01/28 01:36:39;;;;;;;;;;;16.10;99.90;;;;;;5038710;28;1382;-45
2022/01/28 01:39:07;;;;;;;;;;;16.10;99.90;;;;;;5056121;28;825;-45
2022/01/28 01:41:39;;;;;;;;;;;16.00;99.90;;;;;;5056116;28;885;-45
2022/01/28 01:44:46;;;;;;;;;;;16.00;99.90;;;;;;5055937;28;968;-45
2022/01/28 01:52:43;;;;;;;;;;;15.90;99.90;;;;;;5056078;28;755;-44
2022/01/28 01:55:10;;;;;;;;;;;15.90;99.90;;;;;;5056188;28;789;-44
2022/01/28 01:57:38;;;;;;;;;;;15.90;99.90;;;;;;5055978;28;758;-44
2022/01/28 02:00:06;;;;;;;;;;;15.90;99.90;;;;;;5055203;28;1288;-49
2022/01/28 02:02:32;;;;;;;;;;;15.80;99.90;;;;;;5055706;28;1472;-49
2022/01/28 02:04:58;;;;;;;;;;;15.80;99.90;;;;;;5055615;28;1910;-48
2022/01/28 02:07:25;;;;;;;;;;;15.80;99.90;;;;;;5055635;28;869;-49
2022/01/28 02:09:52;;;;;;;;;;;15.70;99.90;;;;;;5055799;28;788;-48
2022/01/28 02:12:20;;;;;;;;;;;15.80;99.90;;;;;;5055838;28;816;-48
2022/01/28 02:14:46;;;;;;;;;;;15.70;99.90;;;;;;5055331;28;1183;-48
2022/01/28 02:17:12;;;;;;;;;;;15.70;99.90;;;;;;5055744;28;828;-48
2022/01/28 02:19:39;;;;;;;;;;;15.70;99.90;;;;;;5054692;28;1160;-49
2022/01/28 02:22:06;;;;;;;;;;;15.60;99.90;;;;;;5052965;28;1389;-48
2022/01/28 02:24:39;;;;;;;;;;;15.60;99.90;;;;;;5055101;28;1965;-45
2022/01/28 02:27:07;;;;;;;;;;;15.60;99.90;;;;;;5052930;28;841;-45
2022/01/28 02:29:35;;;;;;;;;;;15.60;99.90;;;;;;5054420;28;965;-45
2022/01/28 02:32:03;;;;;;;;;;;15.60;99.90;;;;;;5054775;28;927;-45
2022/01/28 02:34:29;;;;;;;;;;;15.50;99.90;;;;;;5054978;28;807;-45
2022/01/28 02:36:56;;;;;;;;;;;15.50;99.90;;;;;;5055590;28;777;-44
2022/01/28 02:39:22;;;;;;;;;;;15.50;99.90;;;;;;5055525;28;789;-44
2022/01/28 02:41:53;;;;;;;;;;;15.50;99.90;;;;;;5054888;28;1024;-45
2022/01/28 02:44:44;;;;;;;;;;;15.40;99.90;;;;;;5053039;28;814;-45
2022/01/28 02:47:13;;;;;;;;;;;15.40;99.90;;;;;;5055166;28;1880;-45
2022/01/28 02:49:40;;;;;;;;;;;15.40;99.90;;;;;;5052193;28;963;-45
2022/01/28 02:52:07;;;;;;;;;;;15.40;99.90;;;;;;5018934;28;1387;-45
2022/01/28 02:54:44;;;;;;;;;;;15.30;99.90;;;;;;5052630;28;777;-45
2022/01/28 02:57:10;;;;;;;;;;;15.30;99.90;;;;;;5051659;28;1254;-44
2022/01/28 02:59:36;;;;;;;;;;;15.30;99.90;;;;;;5055290;28;1720;-44
2022/01/28 03:02:02;;;;;;;;;;;15.30;99.90;;;;;;5055271;28;770;-44
2022/01/28 03:07:12;;;;;;;;;;;15.20;99.90;;;;;;5055541;28;738;-44
2022/01/28 03:10:14;;;;;;;;;;;15.20;99.90;;;;;;5054810;28;1032;-44
2022/01/28 03:12:59;;;;;;;;;;;15.20;99.90;;;;;;5055142;28;1119;-44
2022/01/28 03:15:25;;;;;;;;;;;15.20;99.90;;;;;;5054976;28;1600;-44
2022/01/28 03:18:07;;;;;;;;;;;15.10;99.90;;;;;;5054393;28;1257;-44
2022/01/28 03:22:59;;;;;;;;;;;15.10;99.90;;;;;;5054339;28;851;-44
2022/01/28 03:25:25;;;;;;;;;;;15.10;99.90;;;;;;5051857;28;1906;-44
2022/01/28 03:27:54;;;;;;;;;;;15.10;99.90;;;;;;5052457;28;1337;-44
2022/01/28 03:30:22;;;;;;;;;;;15.00;99.90;;;;;;5054654;28;888;-44
2022/01/28 03:32:50;;;;;;;;;;;15.10;99.90;;;;;;5008050;28;903;-44
2022/01/28 03:35:18;;;;;;;;;;;15.00;99.90;;;;;;5058393;28;1143;-44
2022/01/28 03:37:45;;;;;;;;;;;15.00;99.90;;;;;;5024024;28;1235;-44
2022/01/28 03:40:11;;;;;;;;;;;15.00;99.90;;;;;;5058514;28;801;-44
2022/01/28 03:42:37;;;;;;;;;;;15.00;99.90;;;;;;5058382;28;1044;-44
2022/01/28 03:45:05;;;;;;;;;;;15.00;99.90;;;;;;5058318;28;1902;-44
2022/01/28 03:47:31;;;;;;;;;;;14.90;99.90;;;;;;5058418;28;796;-44
2022/01/28 03:49:57;;;;;;;;;;;14.90;99.90;;;;;;5058205;28;825;-44
2022/01/28 03:52:24;;;;;;;;;;;14.90;99.90;;;;;;5058256;28;824;-44
2022/01/28 03:54:50;;;;;;;;;;;14.90;99.90;;;;;;5057162;28;1242;-44
2022/01/28 03:57:16;;;;;;;;;;;14.90;99.90;;;;;;5023620;28;1575;-44
2022/01/28 03:59:42;;;;;;;;;;;14.80;99.90;;;;;;5057936;28;1271;-44
2022/01/28 04:02:10;;;;;;;;;;;14.80;99.90;;;;;;5057913;28;971;-44
2022/01/28 04:05:38;;;;;;;;;;;14.80;99.90;;;;;;5057896;28;1974;-44
2022/01/28 04:12:55;;;;;;;;;;;14.80;99.90;;;;;;5058180;28;794;-44
2022/01/28 04:15:36;;;;;;;;;;;14.70;99.90;;;;;;5057514;28;951;-44
2022/01/28 04:18:02;;;;;;;;;;;14.70;99.90;;;;;;5056994;28;867;-44
2022/01/28 04:20:30;;;;;;;;;;;14.70;99.90;;;;;;5039878;28;922;-44
2022/01/28 04:22:57;;;;;;;;;;;14.70;99.90;;;;;;5056152;28;1373;-44
2022/01/28 04:25:23;;;;;;;;;;;14.60;99.90;;;;;;5050415;28;1967;-44
2022/01/28 04:27:50;;;;;;;;;;;14.70;99.90;;;;;;5057914;28;976;-44
2022/01/28 04:30:16;;;;;;;;;;;14.60;99.90;;;;;;5057444;28;770;-44
2022/01/28 04:32:42;;;;;;;;;;;14.60;99.90;;;;;;5056927;28;853;-45
2022/01/28 04:35:08;;;;;;;;;;;14.60;99.90;;;;;;5057576;28;864;-44
2022/01/28 04:50:44;;;;;;;;;;;14.50;99.90;;;;;;5038204;28;1224;-44
2022/01/28 04:58:41;;;;;;;;;;;14.40;99.90;;;;;;5056987;28;786;-44
2022/01/28 05:28:04;;;;;;;;;;;14.30;99.90;;;;;;5055203;28;1345;-44
2022/01/28 05:30:30;;;;;;;;;;;14.30;99.90;;;;;;5055193;28;1003;-44
2022/01/28 05:32:57;;;;;;;;;;;14.20;99.90;;;;;;5055544;28;912;-44
2022/01/28 05:35:23;;;;;;;;;;;14.20;99.90;;;;;;5056272;28;932;-44
2022/01/28 05:37:49;;;;;;;;;;;14.20;99.90;;;;;;5056302;28;801;-44
2022/01/28 05:40:15;;;;;;;;;;;14.20;99.90;;;;;;5056241;28;1035;-44
2022/01/28 05:42:41;;;;;;;;;;;14.20;99.90;;;;;;5056093;28;892;-44
2022/01/28 05:45:07;;;;;;;;;;;14.20;99.90;;;;;;5055940;28;1965;-44
2022/01/28 05:47:36;;;;;;;;;;;14.10;99.90;;;;;;5053469;28;1191;-44
2022/01/28 05:50:03;;;;;;;;;;;14.10;99.90;;;;;;5055275;28;933;-44
2022/01/28 05:52:31;;;;;;;;;;;14.10;99.90;;;;;;5056158;28;849;-44
2022/01/28 05:54:57;;;;;;;;;;;14.10;99.90;;;;;;5055743;28;797;-44
2022/01/28 05:57:23;;;;;;;;;;;14.10;99.90;;;;;;5056060;28;805;-44
2022/01/28 05:59:49;;;;;;;;;;;14.10;99.90;;;;;;5055827;28;1172;-45
2022/01/28 06:02:17;;;;;;;;;;;14.10;99.90;;;;;;5021422;28;1080;-45
2022/01/28 06:04:43;;;;;;;;;;;14.10;99.90;;;;;;5021275;28;858;-47
2022/01/28 06:07:09;;;;;;;;;;;14.10;99.90;;;;;;5055073;28;1965;-47
2022/01/28 06:09:35;;;;;;;;;;;14.20;99.90;;;;;;5055984;28;798;-48
2022/01/28 06:12:01;;;;;;;;;;;14.20;99.90;;;;;;5038518;28;1055;-48
2022/01/28 06:14:27;;;;;;;;;;;14.30;99.90;;;;;;5055968;28;757;-48
2022/01/28 06:16:54;;;;;;;;;;;14.30;99.90;;;;;;5055579;28;836;-47
2022/01/28 06:19:20;;;;;;;;;;;14.40;99.90;;;;;;5054528;28;1026;-47
2022/01/28 06:21:46;;;;;;;;;;;14.40;99.90;;;;;;5055201;28;1452;-48
2022/01/28 06:24:12;;;;;;;;;;;14.50;99.90;;;;;;5054232;28;774;-48
2022/01/28 06:26:40;;;;;;;;;;;14.60;99.90;;;;;;5054853;28;1906;-47
2022/01/28 06:29:06;;;;;;;;;;;14.70;99.90;;;;;;5054974;28;932;-48
2022/01/28 06:31:32;;;;;;;;;;;14.80;99.90;;;;;;5055469;28;825;-47
2022/01/28 06:33:58;;;;;;;;;;;14.80;99.90;;;;;;5053438;28;888;-47
2022/01/28 06:36:24;;;;;;;;;;;14.90;99.90;;;;;;5055484;28;948;-47
2022/01/28 06:38:50;;;;;;;;;;;15.00;99.90;;;;;;5055812;28;773;-47
2022/01/28 06:41:16;;;;;;;;;;;15.00;99.90;;;;;;5055521;28;818;-48
2022/01/28 06:43:42;;;;;;;;;;;15.00;99.90;;;;;;5055470;28;839;-48
2022/01/28 06:46:08;;;;;;;;;;;15.10;99.90;;;;;;5055218;28;1910;-47
2022/01/28 06:48:34;;;;;;;;;;;15.10;99.90;;;;;;5055336;28;778;-47
2022/01/28 06:51:00;;;;;;;;;;;15.20;99.90;;;;;;5055628;28;766;-47
2022/01/28 06:53:26;;;;;;;;;;;15.20;99.90;;;;;;5026294;28;1494;-48
2022/01/28 06:55:52;;;;;;;;;;;15.30;99.90;;;;;;5055420;28;940;-48
2022/01/28 06:58:18;;;;;;;;;;;15.30;99.90;;;;;;5055597;28;785;-47
2022/01/28 07:00:44;;;;;;;;;;;15.30;99.90;;;;;;5054309;28;1349;-48
2022/01/28 07:03:11;;;;;;;;;;;15.30;99.90;;;;;;5061135;28;785;-47
2022/01/28 07:05:37;;;;;;;;;;;15.40;99.90;;;;;;5056923;28;1910;-48
2022/01/28 07:08:04;;;;;;;;;;;15.40;99.90;;;;;;5059294;28;833;-48
2022/01/28 07:10:30;;;;;;;;;;;15.40;99.90;;;;;;5059038;28;881;-48
2022/01/28 07:12:56;;;;;;;;;;;15.40;99.90;;;;;;5059000;28;819;-48
2022/01/28 07:15:24;;;;;;;;;;;15.50;99.90;;;;;;5058924;28;854;-48
2022/01/28 07:17:52;;;;;;;;;;;15.50;99.90;;;;;;5058774;28;932;-48
2022/01/28 07:20:18;;;;;;;;;;;15.50;99.90;;;;;;5058402;28;1142;-48
2022/01/28 07:22:44;;;;;;;;;;;15.50;99.90;;;;;;5058535;28;840;-48
2022/01/28 07:25:10;;;;;;;;;;;15.50;99.90;;;;;;5058776;28;1906;-48
2022/01/28 07:27:36;;;;;;;;;;;15.50;99.90;;;;;;5057413;28;1338;-48
2022/01/28 07:30:03;;;;;;;;;;;15.50;99.90;;;;;;5058690;28;1008;-48
2022/01/28 07:32:29;;;;;;;;;;;15.50;99.90;;;;;;5058451;28;939;-48
2022/01/28 07:34:55;;;;;;;;;;;15.50;99.90;;;;;;5058803;28;1053;-48
2022/01/28 07:37:21;;;;;;;;;;;15.50;99.90;;;;;;5058452;28;746;-48
2022/01/28 07:39:47;;;;;;;;;;;15.50;99.90;;;;;;5058751;28;860;-48
2022/01/28 07:42:13;;;;;;;;;;;15.60;99.90;;;;;;5058576;28;782;-48
2022/01/28 07:44:39;;;;;;;;;;;15.60;99.90;;;;;;5056616;28;1460;-48
2022/01/28 07:47:05;;;;;;;;;;;15.60;99.90;;;;;;5040313;28;1903;-47
2022/01/28 07:49:31;;;;;;;;;;;15.60;99.90;;;;;;5057523;28;971;-48
2022/01/28 07:51:56;;;;;;;;;;;15.60;99.90;;;;;;5058302;28;773;-47
2022/01/28 07:54:23;;;;;;;;;;;15.60;99.90;;;;;;5057626;28;1375;-48
2022/01/28 07:56:53;;;;;;;;;;;15.60;99.90;;;;;;5058434;28;908;-48
2022/01/28 07:59:19;;;;;;;;;;;15.60;99.90;;;;;;5058028;28;1204;-48
2022/01/28 08:01:45;;;;;;;;;;;15.70;99.90;;;;;;5057997;28;855;-48
2022/01/28 08:04:11;;;;;;;;;;;15.70;99.90;;;;;;5058160;28;793;-48
2022/01/28 08:06:38;;;;;;;;;;;15.70;99.90;;;;;;5057401;28;1911;-48
2022/01/28 08:09:05;;;;;;;;;;;15.70;99.90;;;;;;5058018;28;856;-48
2022/01/28 08:11:31;;;;;;;;;;;15.70;99.90;;;;;;5058156;28;880;-48
2022/01/28 08:13:58;;;;;;;;;;;15.70;99.90;;;;;;5057995;28;766;-48
2022/01/28 08:16:24;;;;;;;;;;;15.70;99.90;;;;;;5056841;28;905;-48
2022/01/28 08:18:50;;;;;;;;;;;15.70;99.90;;;;;;5057808;28;789;-48
2022/01/28 08:21:16;;;;;;;;;;;15.70;99.90;;;;;;5053094;28;1539;-45
2022/01/28 08:23:42;;;;;;;;;;;15.80;99.90;;;;;;5038493;28;1004;-49
2022/01/28 08:26:08;;;;;;;;;;;15.80;99.90;;;;;;5057431;28;1903;-47
2022/01/28 08:28:35;;;;;;;;;;;15.80;99.90;;;;;;5057307;28;864;-48
2022/01/28 08:31:02;;;;;;;;;;;15.80;99.90;;;;;;5053701;28;1142;-45
2022/01/28 08:33:29;;;;;;;;;;;15.90;99.90;;;;;;5056816;28;1157;-45
2022/01/28 08:35:55;;;;;;;;;;;15.80;99.90;;;;;;5056993;28;954;-44
2022/01/28 08:38:36;;;;;;;;;;;15.80;99.90;;;;;;5056967;28;882;-44
2022/01/28 08:41:08;;;;;;;;;;;15.90;99.90;;;;;;5055626;28;1350;-48
2022/01/28 08:43:34;;;;;;;;;;;15.90;99.90;;;;;;5057513;28;998;-45
2022/01/28 08:46:01;;;;;;;;;;;15.90;99.90;;;;;;5055260;28;1981;-48
2022/01/28 08:48:27;;;;;;;;;;;15.90;99.90;;;;;;5022550;28;913;-44
2022/01/28 08:50:53;;;;;;;;;;;15.90;99.90;;;;;;5052384;28;1021;-43
2022/01/28 08:53:19;;;;;;;;;;;15.90;99.90;;;;;;5055234;28;1366;-45
2022/01/28 08:55:45;;;;;;;;;;;15.90;99.90;;;;;;5056860;28;954;-45
2022/01/28 08:58:13;;;;;;;;;;;15.90;99.90;;;;;;5056897;28;829;-47
2022/01/28 09:00:39;;;;;;;;;;;15.90;99.90;;;;;;5052860;28;1184;-45
2022/01/28 09:03:05;;;;;;;;;;;15.90;99.90;;;;;;5055172;28;1258;-48
2022/01/28 09:05:33;;;;;;;;;;;15.90;99.90;;;;;;5056993;28;1965;-44
2022/01/28 09:08:05;;;;;;;;;;;15.90;99.90;;;;;;5056709;28;946;-44
2022/01/28 09:10:31;;;;;;;;;;;15.90;99.90;;;;;;5036340;28;1376;-45
2022/01/28 09:15:42;;;;;;;;;;;16.00;99.90;;;;;;5056346;28;1359;-44
2022/01/28 09:18:09;;;;;;;;;;;16.00;99.90;;;;;;5056651;28;817;-48
2022/01/28 09:20:36;;;;;;;;;;;16.00;99.90;;;;;;5055608;28;1465;-47
2022/01/28 09:23:03;;;;;;;;;;;16.00;99.90;;;;;;5055578;28;954;-48
2022/01/28 09:25:30;;;;;;;;;;;16.00;99.90;;;;;;5056174;28;1965;-48
2022/01/28 09:27:56;;;;;;;;;;;16.00;99.90;;;;;;5051349;28;1579;-47
2022/01/28 09:30:23;;;;;;;;;;;16.10;99.90;;;;;;5050623;28;1361;-45
2022/01/28 09:32:49;;;;;;;;;;;16.00;99.90;;;;;;5051117;28;1072;-45
2022/01/28 09:35:15;;;;;;;;;;;16.10;99.90;;;;;;5050852;28;1040;-44
2022/01/28 09:37:43;;;;;;;;;;;16.10;99.90;;;;;;5049655;28;1226;-44
2022/01/28 09:40:09;;;;;;;;;;;16.10;99.90;;;;;;5050988;28;1037;-44
2022/01/28 09:42:41;;;;;;;;;;;16.10;99.90;;;;;;5054166;28;1215;-47
2022/01/28 09:45:09;;;;;;;;;;;16.10;99.90;;;;;;5051370;28;1037;-48
2022/01/28 09:47:37;;;;;;;;;;;16.10;99.90;;;;;;5052614;28;1902;-48
2022/01/28 09:50:10;;;;;;;;;;;16.20;99.90;;;;;;5049355;28;1122;-48
2022/01/28 09:52:37;;;;;;;;;;;16.20;99.90;;;;;;5049504;28;1517;-48
2022/01/28 09:55:10;;;;;;;;;;;16.30;99.90;;;;;;5054169;28;1247;-48
2022/01/28 09:57:36;;;;;;;;;;;16.30;99.90;;;;;;5047902;28;1255;-45
2022/01/28 10:00:05;;;;;;;;;;;16.30;99.90;;;;;;5047828;28;1203;-44
2022/01/28 10:02:47;;;;;;;;;;;16.30;99.90;;;;;;5052067;28;1437;-44
2022/01/28 10:05:20;;;;;;;;;;;16.40;99.90;;;;;;5049410;28;1394;-44
2022/01/28 10:08:01;;;;;;;;;;;16.40;99.90;;;;;;5048632;28;1906;-44
2022/01/28 10:10:39;;;;;;;;;;;16.40;99.90;;;;;;5055302;28;1184;-45
2022/01/28 10:13:14;;;;;;;;;;;16.40;99.90;;;;;;5054968;28;1005;-44
2022/01/28 10:16:00;;;;;;;;;;;16.50;99.90;;;;;;5055797;28;888;-44
2022/01/28 10:19:01;;;;;;;;;;;16.50;99.90;;;;;;5051573;28;1291;-45
2022/01/28 10:21:27;;;;;;;;;;;16.50;99.90;;;;;;4971023;28;1275;-46
2022/01/28 10:23:56;;;;;;;;;;;16.20;99.90;;;;;;5038691;28;1009;-46
2022/01/28 10:26:28;;;;;;;;;;;15.90;99.90;;;;;;5054764;28;1906;-46
2022/01/28 10:28:54;;;;;;;;;;;15.70;99.90;;;;;;5050497;28;1060;-51
2022/01/28 10:31:20;;;;;;;;;;;15.60;99.90;;;;;;5054468;28;1138;-52
2022/01/28 10:33:46;;;;;;;;;;;15.60;99.90;;;;;;5036269;28;1232;-53
2022/01/28 10:36:24;;;;;;;;;;;15.70;99.90;;;;;;5049765;28;1130;-53
2022/01/28 10:38:55;;;;;;;;;;;15.80;99.90;;;;;;5049790;28;1351;-52
2022/01/28 10:41:21;;;;;;;;;;;15.90;99.90;;;;;;5040849;28;888;-53
2022/01/28 10:43:49;;;;;;;;;;;15.90;99.90;;;;;;5059175;28;1472;-53
2022/01/28 10:46:20;;;;;;;;;;;15.90;99.90;;;;;;5058788;28;1902;-53
2022/01/28 10:48:53;;;;;;;;;;;16.00;99.90;;;;;;5058549;28;901;-53
2022/01/28 10:51:21;;;;;;;;;;;16.00;99.90;;;;;;5058872;28;1027;-53
2022/01/28 10:54:01;;;;;;;;;;;16.10;99.90;;;;;;5059342;28;868;-53
2022/01/28 10:56:27;;;;;;;;;;;16.10;99.90;;;;;;5057629;28;1361;-53
2022/01/28 10:58:53;;;;;;;;;;;16.10;99.90;;;;;;5059330;28;1021;-53
2022/01/28 11:01:19;;;;;;;;;;;16.20;99.90;;;;;;5059288;28;806;-46
2022/01/28 11:03:45;;;;;;;;;;;16.20;99.90;;;;;;5058887;28;805;-53
2022/01/28 11:06:13;;;;;;;;;;;16.20;99.90;;;;;;5059366;28;1917;-53
2022/01/28 11:08:42;;;;;;;;;;;16.30;99.90;;;;;;5059393;28;781;-46
2022/01/28 11:11:08;;;;;;;;;;;16.30;99.90;;;;;;5041708;28;876;-46
2022/01/28 11:13:36;;;;;;;;;;;16.40;99.90;;;;;;5058772;28;908;-47
2022/01/28 11:16:02;;;;;;;;;;;16.40;99.90;;;;;;5058572;28;992;-46
2022/01/28 11:18:28;;;;;;;;;;;16.40;99.90;;;;;;5059046;28;908;-46
2022/01/28 11:20:55;;;;;;;;;;;16.50;99.90;;;;;;5058583;28;998;-46
2022/01/28 11:23:40;;;;;;;;;;;16.50;99.90;;;;;;5058950;28;778;-46
2022/01/28 11:26:17;;;;;;;;;;;16.50;99.90;;;;;;5058493;28;1977;-53
2022/01/28 11:29:02;;;;;;;;;;;16.50;99.90;;;;;;5059014;28;899;-53
2022/01/28 11:31:40;;;;;;;;;;;16.50;99.90;;;;;;5058736;28;808;-53
2022/01/28 11:34:33;;;;;;;;;;;16.50;99.90;;;;;;5058398;28;734;-54
2022/01/28 11:37:20;;;;;;;;;;;16.50;99.90;;;;;;5056609;28;1515;-53
2022/01/28 11:39:47;;;;;;;;;;;16.50;99.90;;;;;;5054978;28;1223;-53
2022/01/28 11:42:25;;;;;;;;;;;16.50;99.90;;;;;;5058169;28;889;-53
2022/01/28 11:44:51;;;;;;;;;;;16.50;99.90;;;;;;5058659;28;860;-53
2022/01/28 11:47:31;;;;;;;;;;;16.50;99.90;;;;;;5058240;28;1914;-53
2022/01/28 11:50:16;;;;;;;;;;;16.50;99.90;;;;;;5058083;28;1030;-53
2022/01/28 11:52:43;;;;;;;;;;;16.50;99.90;;;;;;5057216;28;808;-53
2022/01/28 11:55:34;;;;;;;;;;;16.50;99.90;;;;;;5037969;28;1253;-53
2022/01/28 11:58:02;;;;;;;;;;;16.60;99.90;;;;;;5055525;28;807;-53
2022/01/28 12:00:30;;;;;;;;;;;16.50;99.90;;;;;;5057997;28;1204;-52
2022/01/28 12:02:56;;;;;;;;;;;16.50;99.90;;;;;;5058089;28;1405;-53
2022/01/28 12:05:45;;;;;;;;;;;16.50;99.90;;;;;;5058026;28;773;-53
2022/01/28 12:08:12;;;;;;;;;;;16.50;99.90;;;;;;5057923;28;1600;-53
2022/01/28 12:10:42;;;;;;;;;;;16.50;99.90;;;;;;5058220;28;865;-53
2022/01/28 12:13:16;;;;;;;;;;;16.40;99.90;;;;;;5057697;28;1034;-53
2022/01/28 12:16:00;;;;;;;;;;;16.40;99.90;;;;;;5040280;28;1003;-53
2022/01/28 12:18:46;;;;;;;;;;;16.40;99.90;;;;;;5057854;28;820;-46
2022/01/28 12:21:14;;;;;;;;;;;16.40;99.90;;;;;;5054824;28;1069;-46
2022/01/28 12:23:40;;;;;;;;;;;16.40;99.90;;;;;;5057849;28;891;-46
2022/01/28 12:26:06;;;;;;;;;;;16.40;99.90;;;;;;5023087;28;1906;-53
2022/01/28 12:28:32;;;;;;;;;;;16.30;99.90;;;;;;5057558;28;885;-53
2022/01/28 12:31:00;;;;;;;;;;;16.30;99.90;;;;;;5057617;28;871;-53
2022/01/28 12:33:28;;;;;;;;;;;16.30;99.90;;;;;;5057246;28;839;-46
2022/01/28 12:35:57;;;;;;;;;;;16.30;99.90;;;;;;5056673;28;844;-54
2022/01/28 12:38:26;;;;;;;;;;;16.30;99.90;;;;;;5061119;28;1371;-46
2022/01/28 12:40:54;;;;;;;;;;;16.30;99.90;;;;;;5061758;28;929;-46
2022/01/28 12:43:22;;;;;;;;;;;16.20;99.90;;;;;;5056924;28;819;-52
2022/01/28 12:45:56;;;;;;;;;;;16.20;99.90;;;;;;5039021;28;773;-46
2022/01/28 12:48:23;;;;;;;;;;;16.20;99.90;;;;;;5064701;28;1386;-47
2022/01/28 12:50:51;;;;;;;;;;;16.20;99.90;;;;;;5058818;28;762;-46
2022/01/28 12:53:29;;;;;;;;;;;16.20;99.90;;;;;;5056321;28;1240;-46
2022/01/28 12:55:55;;;;;;;;;;;16.20;99.90;;;;;;5057050;28;826;-46
2022/01/28 12:58:34;;;;;;;;;;;16.10;99.90;;;;;;5057262;28;798;-46
2022/01/28 13:01:20;;;;;;;;;;;16.10;99.90;;;;;;5056950;28;796;-46
2022/01/28 13:08:56;;;;;;;;;;;16.10;99.90;;;;;;5056863;28;859;-46
2022/01/28 13:11:24;;;;;;;;;;;16.10;99.90;;;;;;5054045;28;1103;-46
2022/01/28 13:14:10;;;;;;;;;;;16.10;99.90;;;;;;5038780;28;914;-46
2022/01/28 13:16:38;;;;;;;;;;;16.10;99.90;;;;;;5054511;28;993;-46
2022/01/28 13:19:05;;;;;;;;;;;16.00;99.90;;;;;;5055720;28;968;-46
2022/01/28 13:21:32;;;;;;;;;;;16.00;99.90;;;;;;5056185;28;870;-46
2022/01/28 13:24:17;;;;;;;;;;;16.00;99.90;;;;;;5056503;28;836;-46
2022/01/28 13:26:54;;;;;;;;;;;16.00;99.90;;;;;;5056333;28;1910;-46
2022/01/28 13:29:33;;;;;;;;;;;16.00;99.90;;;;;;5056581;28;846;-46
2022/01/28 13:32:04;;;;;;;;;;;16.00;99.90;;;;;;5056219;28;799;-46
2022/01/28 13:34:42;;;;;;;;;;;16.00;99.90;;;;;;5055866;28;873;-46
2022/01/28 13:37:08;;;;;;;;;;;16.00;99.90;;;;;;5055790;28;929;-53
2022/01/28 13:39:40;;;;;;;;;;;16.00;99.90;;;;;;5055841;28;935;-46
2022/01/28 13:42:12;;;;;;;;;;;16.00;99.90;;;;;;5056160;28;785;-46
2022/01/28 13:44:41;;;;;;;;;;;16.00;99.90;;;;;;5056092;28;913;-53
2022/01/28 13:47:09;;;;;;;;;;;15.90;99.90;;;;;;5056220;28;1918;-53
2022/01/28 13:49:36;;;;;;;;;;;15.90;99.90;;;;;;5056048;28;833;-46
2022/01/28 13:52:41;;;;;;;;;;;15.90;99.90;;;;;;5056360;28;903;-46
2022/01/28 13:55:05;;;;;;;;;;;15.90;99.90;;;;;;5054308;28;1816;-46
2022/01/28 13:57:31;;;;;;;;;;;15.90;99.90;;;;;;5055955;28;976;-46
2022/01/28 14:00:00;;;;;;;;;;;15.90;99.90;;;;;;5055666;28;1423;-46
2022/01/28 14:02:27;;;;;;;;;;;15.90;99.90;;;;;;5054248;28;1325;-53
2022/01/28 14:04:53;;;;;;;;;;;15.90;99.90;;;;;;5018407;28;1465;-46
2022/01/28 14:07:20;;;;;;;;;;;15.90;99.90;;;;;;5055758;28;1977;-46
2022/01/28 14:09:46;;;;;;;;;;;15.90;99.90;;;;;;5055706;28;797;-46
2022/01/28 14:12:48;;;;;;;;;;;15.90;99.90;;;;;;5038492;28;872;-46
2022/01/28 14:15:33;;;;;;;;;;;15.90;99.90;;;;;;5048383;28;1101;-46
2022/01/28 14:18:05;;;;;;;;;;;15.80;99.90;;;;;;5055354;28;1045;-52
2022/01/28 14:20:31;;;;;;;;;;;15.90;99.90;;;;;;5021181;28;1263;-53
2022/01/28 14:22:58;;;;;;;;;;;15.80;99.90;;;;;;5056029;28;876;-53
2022/01/28 14:25:24;;;;;;;;;;;15.80;99.90;;;;;;5054468;28;1034;-53
2022/01/28 14:28:13;;;;;;;;;;;15.80;99.90;;;;;;5037849;28;1960;-46
2022/01/28 14:30:41;;;;;;;;;;;15.80;99.90;;;;;;5055205;28;1082;-46
2022/01/28 14:33:10;;;;;;;;;;;15.80;99.90;;;;;;5055058;28;1050;-53
2022/01/28 14:35:38;;;;;;;;;;;15.80;99.90;;;;;;5055400;28;866;-53
2022/01/28 14:38:05;;;;;;;;;;;15.70;99.90;;;;;;5055181;28;901;-46
2022/01/28 14:40:31;;;;;;;;;;;15.70;99.90;;;;;;5038150;28;843;-46
2022/01/28 14:42:57;;;;;;;;;;;15.70;99.90;;;;;;5055224;28;862;-46
2022/01/28 14:45:23;;;;;;;;;;;15.70;99.90;;;;;;5053730;28;1290;-53
2022/01/28 14:47:49;;;;;;;;;;;15.70;99.90;;;;;;5053937;28;1894;-53
2022/01/28 14:50:15;;;;;;;;;;;15.70;99.90;;;;;;5055197;28;747;-46
2022/01/28 14:52:42;;;;;;;;;;;15.60;99.90;;;;;;5054755;28;999;-53
2022/01/28 14:55:10;;;;;;;;;;;15.60;99.90;;;;;;5055003;28;891;-46
2022/01/28 14:57:36;;;;;;;;;;;15.60;99.90;;;;;;5055367;28;1008;-46
2022/01/28 15:00:03;;;;;;;;;;;15.60;99.90;;;;;;5055395;28;1164;-46
2022/01/28 15:02:31;;;;;;;;;;;15.60;99.90;;;;;;5037818;28;1376;-53
2022/01/28 15:04:58;;;;;;;;;;;15.60;99.90;;;;;;5055190;28;841;-45
2022/01/28 15:07:27;;;;;;;;;;;15.60;99.90;;;;;;5055247;28;1914;-53
2022/01/28 15:09:56;;;;;;;;;;;15.60;99.90;;;;;;5054876;28;869;-53
2022/01/28 15:12:22;;;;;;;;;;;15.50;99.90;;;;;;5055467;28;782;-53
2022/01/28 15:14:48;;;;;;;;;;;15.50;99.90;;;;;;5055470;28;864;-53
2022/01/28 15:17:20;;;;;;;;;;;15.50;99.90;;;;;;5054574;28;1008;-52
2022/01/28 15:19:46;;;;;;;;;;;15.50;99.90;;;;;;5054945;28;875;-53
2022/01/28 15:22:13;;;;;;;;;;;15.50;99.90;;;;;;5055134;28;824;-46
2022/01/28 15:24:41;;;;;;;;;;;15.40;99.90;;;;;;5055364;28;781;-53
2022/01/28 15:27:09;;;;;;;;;;;15.50;99.90;;;;;;5040114;28;1910;-53
2022/01/28 15:35:35;;;;;;;;;;;15.40;99.90;;;;;;5058356;28;803;-52
2022/01/28 15:37:54;;;;;;;;;;;15.40;99.90;;;;;;5058435;28;1461;-53
2022/01/28 15:40:20;;;;;;;;;;;15.40;99.90;;;;;;5058525;28;884;-46
2022/01/28 15:42:46;;;;;;;;;;;15.40;99.90;;;;;;5058597;28;841;-46
2022/01/28 15:45:13;;;;;;;;;;;15.30;99.90;;;;;;5058070;28;923;-52
2022/01/28 15:47:40;;;;;;;;;;;15.30;99.90;;;;;;5058425;28;1969;-53
2022/01/28 15:50:09;;;;;;;;;;;15.30;99.90;;;;;;5057698;28;961;-52
2022/01/28 15:52:35;;;;;;;;;;;15.30;99.90;;;;;;5058330;28;786;-53
2022/01/28 15:55:01;;;;;;;;;;;15.30;99.90;;;;;;5058203;28;906;-53
2022/01/28 15:57:27;;;;;;;;;;;15.30;99.90;;;;;;5057388;28;981;-46
2022/01/28 15:59:53;;;;;;;;;;;15.30;99.90;;;;;;5058049;28;1101;-53
2022/01/28 16:02:19;;;;;;;;;;;15.30;99.90;;;;;;5058239;28;777;-46
2022/01/28 16:04:46;;;;;;;;;;;15.30;99.90;;;;;;5058114;28;798;-46
2022/01/28 16:07:15;;;;;;;;;;;15.20;99.90;;;;;;5057592;28;1914;-46
2022/01/28 16:09:49;;;;;;;;;;;15.20;99.90;;;;;;5055144;28;1432;-46
2022/01/28 16:12:33;;;;;;;;;;;15.20;99.90;;;;;;5057635;28;947;-46
2022/01/28 16:15:07;;;;;;;;;;;15.20;99.90;;;;;;5057771;28;801;-46
2022/01/28 16:17:38;;;;;;;;;;;15.20;99.90;;;;;;5057795;28;1000;-53
2022/01/28 16:20:05;;;;;;;;;;;15.20;99.90;;;;;;5057458;28;1851;-46
2022/01/28 16:22:31;;;;;;;;;;;15.20;99.90;;;;;;5057632;28;1009;-53
2022/01/28 16:24:57;;;;;;;;;;;15.20;99.90;;;;;;5057720;28;742;-53
2022/01/28 16:27:22;;;;;;;;;;;15.10;99.90;;;;;;5057582;28;1973;-46
2022/01/28 16:29:50;;;;;;;;;;;15.10;99.90;;;;;;5057668;28;758;-46